Flight Track Log - Related Links

Times and Time Zones

All times are in EDT time to prevent confusion due to time zone crossing. See the N84NG flight status page for this flight to view local times or setup timezone preferences in your user account.

Time Position Orientation Groundspeed Altitude Reporting Facility
EDT Latitude Longitude Course Direction KTS MPH feet Rate Location/Type
Fri 11:35:41 AM 38.2628 -84.2878 68° East 237 273 3,500  Level Indianapolis Center
Fri 11:36:43 AM 38.2881 -84.2083 68° East 249 287 6,000 3,000 Climbing Indianapolis Center
Fri 11:37:45 AM 38.3353 -84.1078 59° Northeast 279 321 9,700 2,112 Climbing Indianapolis Center
Fri 11:38:48 AM 38.3881 -84.0103 55° Northeast 329 379 10,400 1,366 Climbing Indianapolis Center
Fri 11:39:48 AM 38.4472 -83.8992 56° Northeast 368 423 12,500 2,016 Climbing Indianapolis Center
Fri 11:40:50 AM 38.5083 -83.7836 56° Northeast 387 445 14,500 1,935 Climbing Indianapolis Center
Fri 11:41:52 AM 38.5708 -83.6656 56° Northeast 398 458 16,500 1,839 Climbing Indianapolis Center
Fri 11:42:54 AM 38.6342 -83.5436 56° Northeast 408 470 18,300 1,935 Climbing Indianapolis Center
Fri 11:43:56 AM 38.7036 -83.4136 56° Northeast 410 472 20,500 2,049 Climbing Indianapolis Center
Fri 11:44:57 AM 38.7678 -83.2906 56° Northeast 412 474 22,500 2,098 Climbing Indianapolis Center
Fri 11:45:59 AM 38.8403 -83.1511 56° Northeast 418 481 24,800 2,081 Climbing Indianapolis Center
Fri 11:47:01 AM 38.9044 -83.0264 57° Northeast 418 481 26,800 1,935 Climbing Indianapolis Center
Fri 11:48:03 AM 38.9678 -82.9025 57° Northeast 414 476 28,800 1,694 Climbing Indianapolis Center
Fri 11:49:05 AM 39.0317 -82.7789 56° Northeast 414 476 30,300 1,258 Climbing Indianapolis Center
Fri 11:50:07 AM 39.0967 -82.6511 57° Northeast 423 487 31,400 1,024 Climbing Indianapolis Center
Fri 11:51:08 AM 39.1636 -82.5189 57° Northeast 436 502 32,400 976 Climbing Indianapolis Center
Fri 11:52:10 AM 39.2339 -82.3839 56° Northeast 449 517 33,400 968 Climbing Indianapolis Center
Fri 11:53:12 AM 39.3031 -82.2461 57° Northeast 452 520 34,400 774 Climbing Indianapolis Center
Fri 11:54:14 AM 39.3869 -82.0794 57° Northeast 460 529 35,000 290 Climbing Indianapolis Center
Fri 11:55:16 AM 39.4600 -81.9339 57° Northeast 475 547 35,000  Level Indianapolis Center
Fri 11:56:18 AM 39.5356 -81.7828 57° Northeast 492 566 35,000 293 Level Indianapolis Center
Fri 11:57:19 AM 39.6100 -81.6297 58° Northeast 499 574 35,600 780 Climbing Indianapolis Center
Fri 11:58:21 AM 39.6831 -81.4828 57° Northeast 487 560 36,600 968 Climbing Indianapolis Center
Fri 11:59:23 AM 39.7542 -81.3386 57° Northeast 477 549 37,600 968 Climbing Indianapolis Center
Fri 12:00:25 PM 39.8239 -81.1956 58° Northeast 468 539 38,600 677 Climbing Indianapolis Center
Fri 12:01:27 PM 39.8936 -81.0542 57° Northeast 464 534 39,000 195 Climbing Indianapolis Center
Fri 12:02:28 PM 39.9753 -80.8842 58° Northeast 481 554 39,000  Level Indianapolis Center
Fri 12:03:19 PM 40.0442 -80.7486 56° Northeast 478 550 39,000  Level Cleveland Center
Fri 12:04:19 PM 40.1172 -80.5939 58° Northeast 488 562 39,000  Level Cleveland Center
Fri 12:05:19 PM 40.1922 -80.4392 58° Northeast 493 567 39,000  Level Cleveland Center
Fri 12:06:19 PM 40.2647 -80.2839 59° Northeast 493 567 39,000  Level Cleveland Center
Fri 12:07:19 PM 40.3372 -80.1256 59° Northeast 493 567 39,000  Level Cleveland Center
Fri 12:08:19 PM 40.4053 -79.9833 58° Northeast 502 578 39,000  Level Cleveland Center
Fri 12:09:19 PM 40.4775 -79.8269 59° Northeast 508 585 39,000  Level Cleveland Center
Fri 12:10:19 PM 40.5514 -79.6731 58° Northeast 503 579 39,000  Level Cleveland Center
Fri 12:11:19 PM 40.6231 -79.5161 59° Northeast 503 579 39,000  Level Cleveland Center
Fri 12:12:19 PM 40.6944 -79.3589 59° Northeast 503 579 39,000  Level Cleveland Center
Fri 12:13:19 PM 40.7697 -79.2042 57° Northeast 503 579 39,000  Level Cleveland Center
Fri 12:14:19 PM 40.8406 -79.0433 60° Northeast 503 579 39,000 -400 Level Cleveland Center
Fri 12:15:19 PM 40.9133 -78.8850 59° Northeast 503 579 38,200 -900 Descending Cleveland Center
Fri 12:16:19 PM 40.9819 -78.7319 59° Northeast 503 579 37,200 -1,000 Descending Cleveland Center
Fri 12:17:19 PM 41.0503 -78.5758 60° Northeast 498 573 36,200 -1,000 Descending Cleveland Center
Fri 12:18:19 PM 41.1203 -78.4194 59° Northeast 498 573 35,200 -483 Descending Cleveland Center
Fri 12:19:48 PM 41.2325 -78.1681 59° Northeast 497 572 35,000 -81 Descending New York Center
Fri 12:20:48 PM 41.3031 -78.0072 60° Northeast 497 572 35,000 -250 Level New York Center
Fri 12:21:48 PM 41.3753 -77.8461 59° Northeast 497 572 34,500 -700 Descending New York Center
Fri 12:22:48 PM 41.4417 -77.7092 57° Northeast 502 578 33,600 -950 Descending New York Center
Fri 12:23:48 PM 41.5131 -77.5531 59° Northeast 490 564 32,600 -1,000 Descending New York Center
Fri 12:24:48 PM 41.5864 -77.3969 58° Northeast 485 558 31,600 -1,000 Descending New York Center
Fri 12:25:48 PM 41.6575 -77.2400 59° Northeast 485 558 30,600 -1,000 Descending New York Center
Fri 12:26:48 PM 41.7306 -77.0858 58° Northeast 485 558 29,600 -1,050 Descending New York Center
Fri 12:27:48 PM 41.7989 -76.9311 59° Northeast 485 558 28,500 -1,300 Descending New York Center
Fri 12:28:48 PM 41.8692 -76.7814 58° Northeast 485 558 27,000 -1,500 Descending New York Center
Fri 12:29:48 PM 41.9369 -76.6314 59° Northeast 474 545 25,500 -1,500 Descending New York Center
Fri 12:30:48 PM 42.0047 -76.4811 59° Northeast 468 539 24,000 -520 Descending New York Center
Fri 12:32:41 PM 42.1317 -76.2031 58° Northeast 464 534 24,000  Level Boston Center
Fri 12:33:41 PM 42.1978 -76.0303 63° Northeast 464 534 24,000  Level Boston Center
Fri 12:34:42 PM 42.2547 -75.8681 65° Northeast 464 534 24,000  Level Boston Center
Fri 12:35:39 PM 42.3028 -75.7275 65° Northeast 464 534 24,000 -462 Level Boston Center
Fri 12:36:39 PM 42.3572 -75.5675 65° Northeast 464 534 23,100 -885 Descending Boston Center
Fri 12:37:41 PM 42.4094 -75.4125 65° Northeast 454 522 22,200 -1,082 Descending Boston Center
Fri 12:38:41 PM 42.4308 -75.2278 81° East 447 514 20,900 -1,678 Descending Boston Center
Fri 12:39:39 PM 42.4447 -75.0764 83° East 439 505 18,900 -1,916 Descending Boston Center
Fri 12:40:40 PM 42.4522 -74.9278 86° East 412 474 17,100 -1,859 Descending Boston Center
Fri 12:42:01 PM 42.4650 -74.7228 85° East 408 470 14,500 -1,900 Descending Boston Center
Fri 12:42:40 PM 42.4711 -74.6244 85° East 404 465 13,300 -2,040 Descending Boston Center
Fri 12:43:41 PM 42.4842 -74.4783 83° East 390 449 11,100 -1,525 Descending Boston Center
Fri 12:44:42 PM 42.5197 -74.3614 68° East 351 404 10,200 -1,513 Descending Boston Center
Fri 12:45:40 PM 42.5606 -74.2722 58° Northeast 294 338 8,100 -2,168 Descending Boston Center
Fri 12:46:41 PM 42.5872 -74.1744 70° East 276 318 5,900 -1,869 Descending Boston Center
Fri 12:47:42 PM 42.6053 -74.0847 75° East 264 304 4,300 -1,516 Descending Boston Center
Fri 12:48:12 PM 42.6206 -74.0314 69° East 233 268 3,600 -533 Descending Boston Center
Fri 12:49:12 PM 42.6425 -73.9558 68° East 211 243 3,500 -61 Descending Boston Center
Fri 12:49:51 PM 42.6531 -73.9364 54° Northeast 222 255 3,500 -600 Level Boston Center
Fri 12:50:52 PM 42.6731 -73.8547 72° East 200 230 2,500 9,098 Descending Boston Center
Fri 12:51:53 PM 42.6989 -73.7736 67° East 200 230 22,000 9,832 Climbing Boston Center
Fri 12:52:51 PM 42.7206 -73.7033 67° East 200 230 22,000  Level Boston Center
Fri 12:53:52 PM 42.7422 -73.6331 67° East 200 230 22,000  Level Boston Center
Fri 12:54:52 PM 42.7639 -73.5628 67° East 200 230 22,000  Level Boston Center
Fri 12:55:53 PM 42.7639 -73.5628 124° Southeast 200 230 22,000  Level Boston Center
Fri 12:57:00 PM 42.7388 -73.7184 265° West  Level FlightAware Approximate

Login

Don't have an account? Register now (free) for customized features, flight alerts, and more!